sensor_id;sensor_type;location;lat;lon;timestamp;temperature;humidity
35541;DHT22;21650;48.840;9.162;2023-04-03T00:01:12;4.40;99.90
35541;DHT22;21650;48.840;9.162;2023-04-03T00:03:38;4.40;99.90
35541;DHT22;21650;48.840;9.162;2023-04-03T00:06:04;4.40;99.90
35541;DHT22;21650;48.840;9.162;2023-04-03T00:08:32;4.30;99.90
35541;DHT22;21650;48.840;9.162;2023-04-03T00:10:58;4.40;99.90
35541;DHT22;21650;48.840;9.162;2023-04-03T00:13:24;4.40;99.90
35541;DHT22;21650;48.840;9.162;2023-04-03T00:15:50;4.40;99.90
35541;DHT22;21650;48.840;9.162;2023-04-03T00:18:16;4.30;99.90
35541;DHT22;21650;48.840;9.162;2023-04-03T00:20:41;4.30;99.90
35541;DHT22;21650;48.840;9.162;2023-04-03T00:23:07;4.30;99.90
35541;DHT22;21650;48.840;9.162;2023-04-03T00:25:33;4.30;99.90
35541;DHT22;21650;48.840;9.162;2023-04-03T00:27:58;4.30;99.90
35541;DHT22;21650;48.840;9.162;2023-04-03T00:30:25;4.30;99.90
35541;DHT22;21650;48.840;9.162;2023-04-03T00:32:51;4.40;99.90
35541;DHT22;21650;48.840;9.162;2023-04-03T00:35:18;4.40;99.90
35541;DHT22;21650;48.840;9.162;2023-04-03T00:37:44;4.40;99.90
35541;DHT22;21650;48.840;9.162;2023-04-03T00:40:10;4.30;99.90
35541;DHT22;21650;48.840;9.162;2023-04-03T00:42:37;4.40;99.90
35541;DHT22;21650;48.840;9.162;2023-04-03T00:47:30;4.30;99.90
35541;DHT22;21650;48.840;9.162;2023-04-03T00:49:57;4.30;99.90
35541;DHT22;21650;48.840;9.162;2023-04-03T00:52:26;4.30;99.90
35541;DHT22;21650;48.840;9.162;2023-04-03T00:54:56;4.40;99.90
35541;DHT22;21650;48.840;9.162;2023-04-03T00:57:23;4.50;99.90
35541;DHT22;21650;48.840;9.162;2023-04-03T00:59:54;4.40;99.90
35541;DHT22;21650;48.840;9.162;2023-04-03T01:02:20;4.40;99.90
35541;DHT22;21650;48.840;9.162;2023-04-03T01:04:46;4.40;99.90
35541;DHT22;21650;48.840;9.162;2023-04-03T01:07:15;4.40;99.90
35541;DHT22;21650;48.840;9.162;2023-04-03T01:09:43;4.40;99.90
35541;DHT22;21650;48.840;9.162;2023-04-03T01:12:31;4.30;99.90
35541;DHT22;21650;48.840;9.162;2023-04-03T01:15:11;4.30;99.90
35541;DHT22;21650;48.840;9.162;2023-04-03T01:17:49;4.40;99.90
35541;DHT22;21650;48.840;9.162;2023-04-03T01:20:34;4.50;99.90
35541;DHT22;21650;48.840;9.162;2023-04-03T01:25:51;4.40;99.90
35541;DHT22;21650;48.840;9.162;2023-04-03T01:28:30;4.40;99.90
35541;DHT22;21650;48.840;9.162;2023-04-03T01:31:13;4.20;99.90
35541;DHT22;21650;48.840;9.162;2023-04-03T01:33:41;4.20;99.90
35541;DHT22;21650;48.840;9.162;2023-04-03T01:36:08;4.20;99.90
35541;DHT22;21650;48.840;9.162;2023-04-03T01:38:33;4.20;99.90
35541;DHT22;21650;48.840;9.162;2023-04-03T01:40:59;4.10;99.90
35541;DHT22;21650;48.840;9.162;2023-04-03T01:43:25;4.20;99.90
35541;DHT22;21650;48.840;9.162;2023-04-03T01:45:50;4.10;99.90
35541;DHT22;21650;48.840;9.162;2023-04-03T01:48:18;4.10;99.90
35541;DHT22;21650;48.840;9.162;2023-04-03T01:50:43;4.10;99.90
35541;DHT22;21650;48.840;9.162;2023-04-03T01:53:09;4.10;99.90
35541;DHT22;21650;48.840;9.162;2023-04-03T01:55:34;4.00;99.90
35541;DHT22;21650;48.840;9.162;2023-04-03T01:58:00;4.00;99.90
35541;DHT22;21650;48.840;9.162;2023-04-03T02:00:25;4.00;99.90
35541;DHT22;21650;48.840;9.162;2023-04-03T02:02:52;4.00;99.90
35541;DHT22;21650;48.840;9.162;2023-04-03T02:05:18;4.00;99.90
35541;DHT22;21650;48.840;9.162;2023-04-03T02:07:43;3.90;99.90
35541;DHT22;21650;48.840;9.162;2023-04-03T02:10:09;3.90;99.90
35541;DHT22;21650;48.840;9.162;2023-04-03T02:12:35;4.00;99.90
35541;DHT22;21650;48.840;9.162;2023-04-03T02:15:00;3.90;99.90
35541;DHT22;21650;48.840;9.162;2023-04-03T02:17:26;4.00;99.90
35541;DHT22;21650;48.840;9.162;2023-04-03T02:19:52;4.10;99.90
35541;DHT22;21650;48.840;9.162;2023-04-03T02:22:17;4.10;99.90
35541;DHT22;21650;48.840;9.162;2023-04-03T02:24:43;4.10;99.90
35541;DHT22;21650;48.840;9.162;2023-04-03T02:27:09;4.10;99.90
35541;DHT22;21650;48.840;9.162;2023-04-03T02:29:34;4.00;99.90
35541;DHT22;21650;48.840;9.162;2023-04-03T02:32:00;4.10;99.90
35541;DHT22;21650;48.840;9.162;2023-04-03T02:34:26;4.10;99.90
35541;DHT22;21650;48.840;9.162;2023-04-03T02:36:51;4.00;99.90
35541;DHT22;21650;48.840;9.162;2023-04-03T02:39:17;4.00;99.90
35541;DHT22;21650;48.840;9.162;2023-04-03T02:41:42;4.00;99.90
35541;DHT22;21650;48.840;9.162;2023-04-03T02:44:09;3.90;99.90
35541;DHT22;21650;48.840;9.162;2023-04-03T02:46:35;4.00;99.90
35541;DHT22;21650;48.840;9.162;2023-04-03T02:49:01;4.00;99.90
35541;DHT22;21650;48.840;9.162;2023-04-03T02:51:26;4.00;99.90
35541;DHT22;21650;48.840;9.162;2023-04-03T02:53:52;4.00;99.90
35541;DHT22;21650;48.840;9.162;2023-04-03T02:56:17;4.00;99.90
35541;DHT22;21650;48.840;9.162;2023-04-03T02:58:44;4.10;99.90
35541;DHT22;21650;48.840;9.162;2023-04-03T03:01:10;4.10;99.90
35541;DHT22;21650;48.840;9.162;2023-04-03T03:03:36;4.10;99.90
35541;DHT22;21650;48.840;9.162;2023-04-03T03:06:04;4.10;99.90
35541;DHT22;21650;48.840;9.162;2023-04-03T03:08:30;4.10;99.90
35541;DHT22;21650;48.840;9.162;2023-04-03T03:10:56;4.10;99.90
35541;DHT22;21650;48.840;9.162;2023-04-03T03:13:21;4.10;99.90
35541;DHT22;21650;48.840;9.162;2023-04-03T03:15:47;4.10;99.90
35541;DHT22;21650;48.840;9.162;2023-04-03T03:18:12;4.10;99.90
35541;DHT22;21650;48.840;9.162;2023-04-03T03:20:38;4.10;99.90
35541;DHT22;21650;48.840;9.162;2023-04-03T03:23:03;4.10;99.90
35541;DHT22;21650;48.840;9.162;2023-04-03T03:25:29;4.10;99.90
35541;DHT22;21650;48.840;9.162;2023-04-03T03:27:55;4.00;99.90
35541;DHT22;21650;48.840;9.162;2023-04-03T03:30:20;4.00;99.90
35541;DHT22;21650;48.840;9.162;2023-04-03T03:32:46;4.10;99.90
35541;DHT22;21650;48.840;9.162;2023-04-03T03:35:11;4.10;99.90
35541;DHT22;21650;48.840;9.162;2023-04-03T03:37:37;4.10;99.90
35541;DHT22;21650;48.840;9.162;2023-04-03T03:40:02;4.10;99.90
35541;DHT22;21650;48.840;9.162;2023-04-03T03:42:28;4.00;99.90
35541;DHT22;21650;48.840;9.162;2023-04-03T03:44:54;4.00;99.90
35541;DHT22;21650;48.840;9.162;2023-04-03T03:47:20;4.10;99.90
35541;DHT22;21650;48.840;9.162;2023-04-03T03:49:45;4.00;99.90
35541;DHT22;21650;48.840;9.162;2023-04-03T03:52:11;4.00;99.90
35541;DHT22;21650;48.840;9.162;2023-04-03T03:54:37;4.00;99.90
35541;DHT22;21650;48.840;9.162;2023-04-03T03:57:03;4.00;99.90
35541;DHT22;21650;48.840;9.162;2023-04-03T03:59:28;4.00;99.90
35541;DHT22;21650;48.840;9.162;2023-04-03T04:01:54;4.00;99.90
35541;DHT22;21650;48.840;9.162;2023-04-03T04:04:20;3.90;99.90
35541;DHT22;21650;48.840;9.162;2023-04-03T04:06:46;4.00;99.90
35541;DHT22;21650;48.840;9.162;2023-04-03T04:09:12;4.00;99.90
35541;DHT22;21650;48.840;9.162;2023-04-03T04:11:37;4.00;99.90
35541;DHT22;21650;48.840;9.162;2023-04-03T04:14:05;4.00;99.90
35541;DHT22;21650;48.840;9.162;2023-04-03T04:16:31;4.00;99.90
35541;DHT22;21650;48.840;9.162;2023-04-03T04:18:56;4.00;99.90
35541;DHT22;21650;48.840;9.162;2023-04-03T04:21:22;4.00;99.90
35541;DHT22;21650;48.840;9.162;2023-04-03T04:23:47;4.00;99.90
35541;DHT22;21650;48.840;9.162;2023-04-03T04:26:13;4.00;99.90
35541;DHT22;21650;48.840;9.162;2023-04-03T04:28:38;3.90;99.90
35541;DHT22;21650;48.840;9.162;2023-04-03T04:31:04;4.00;99.90
35541;DHT22;21650;48.840;9.162;2023-04-03T04:33:29;3.90;99.90
35541;DHT22;21650;48.840;9.162;2023-04-03T04:35:55;3.90;99.90
35541;DHT22;21650;48.840;9.162;2023-04-03T04:38:21;3.90;99.90
35541;DHT22;21650;48.840;9.162;2023-04-03T04:40:48;3.90;99.90
35541;DHT22;21650;48.840;9.162;2023-04-03T04:43:13;3.90;99.90
35541;DHT22;21650;48.840;9.162;2023-04-03T04:45:40;3.90;99.90
35541;DHT22;21650;48.840;9.162;2023-04-03T04:48:06;3.90;99.90
35541;DHT22;21650;48.840;9.162;2023-04-03T04:50:31;3.90;99.90
35541;DHT22;21650;48.840;9.162;2023-04-03T04:52:57;4.00;99.90
35541;DHT22;21650;48.840;9.162;2023-04-03T04:55:23;4.00;99.90
35541;DHT22;21650;48.840;9.162;2023-04-03T04:57:48;3.90;99.90
35541;DHT22;21650;48.840;9.162;2023-04-03T05:00:15;4.00;99.90
35541;DHT22;21650;48.840;9.162;2023-04-03T05:02:41;3.90;99.90
35541;DHT22;21650;48.840;9.162;2023-04-03T05:05:07;4.00;99.90
35541;DHT22;21650;48.840;9.162;2023-04-03T05:07:32;4.00;99.90
35541;DHT22;21650;48.840;9.162;2023-04-03T05:09:58;4.00;99.90
35541;DHT22;21650;48.840;9.162;2023-04-03T05:12:24;4.00;99.90
35541;DHT22;21650;48.840;9.162;2023-04-03T05:14:50;4.10;99.90
35541;DHT22;21650;48.840;9.162;2023-04-03T05:17:15;4.00;99.90
35541;DHT22;21650;48.840;9.162;2023-04-03T05:19:41;4.00;99.90
35541;DHT22;21650;48.840;9.162;2023-04-03T05:22:06;4.00;99.90
35541;DHT22;21650;48.840;9.162;2023-04-03T05:24:32;4.00;99.90
35541;DHT22;21650;48.840;9.162;2023-04-03T05:26:58;4.00;99.90
35541;DHT22;21650;48.840;9.162;2023-04-03T05:29:24;4.00;99.90
35541;DHT22;21650;48.840;9.162;2023-04-03T05:31:50;4.00;99.90
35541;DHT22;21650;48.840;9.162;2023-04-03T05:34:15;4.00;99.90
35541;DHT22;21650;48.840;9.162;2023-04-03T05:36:41;4.00;99.90
35541;DHT22;21650;48.840;9.162;2023-04-03T05:39:07;4.00;99.90
35541;DHT22;21650;48.840;9.162;2023-04-03T05:41:33;4.00;99.90
35541;DHT22;21650;48.840;9.162;2023-04-03T05:43:58;4.00;99.90
35541;DHT22;21650;48.840;9.162;2023-04-03T05:46:24;4.00;99.90
35541;DHT22;21650;48.840;9.162;2023-04-03T05:48:50;4.00;99.90
35541;DHT22;21650;48.840;9.162;2023-04-03T05:51:18;4.00;99.90
35541;DHT22;21650;48.840;9.162;2023-04-03T05:53:45;4.00;99.90
35541;DHT22;21650;48.840;9.162;2023-04-03T05:56:12;4.10;99.90
35541;DHT22;21650;48.840;9.162;2023-04-03T05:58:37;4.10;99.90
35541;DHT22;21650;48.840;9.162;2023-04-03T06:01:04;4.10;99.90
35541;DHT22;21650;48.840;9.162;2023-04-03T06:03:31;4.00;99.90
35541;DHT22;21650;48.840;9.162;2023-04-03T06:05:56;4.00;99.90
35541;DHT22;21650;48.840;9.162;2023-04-03T06:08:22;4.00;99.90
35541;DHT22;21650;48.840;9.162;2023-04-03T06:10:49;4.10;99.90
35541;DHT22;21650;48.840;9.162;2023-04-03T06:13:15;4.00;99.90
35541;DHT22;21650;48.840;9.162;2023-04-03T06:15:41;4.10;99.90
35541;DHT22;21650;48.840;9.162;2023-04-03T06:18:07;4.00;99.90
35541;DHT22;21650;48.840;9.162;2023-04-03T06:20:33;4.00;99.90
35541;DHT22;21650;48.840;9.162;2023-04-03T06:22:59;3.90;99.90
35541;DHT22;21650;48.840;9.162;2023-04-03T06:25:25;4.10;99.90
35541;DHT22;21650;48.840;9.162;2023-04-03T06:27:50;4.00;99.90
35541;DHT22;21650;48.840;9.162;2023-04-03T06:30:16;4.00;99.90
35541;DHT22;21650;48.840;9.162;2023-04-03T06:32:42;4.10;99.90
35541;DHT22;21650;48.840;9.162;2023-04-03T06:35:08;4.00;99.90
35541;DHT22;21650;48.840;9.162;2023-04-03T06:37:34;4.00;99.90
35541;DHT22;21650;48.840;9.162;2023-04-03T06:40:00;4.20;99.90
35541;DHT22;21650;48.840;9.162;2023-04-03T06:42:26;4.20;99.90
35541;DHT22;21650;48.840;9.162;2023-04-03T06:44:51;4.10;99.90
35541;DHT22;21650;48.840;9.162;2023-04-03T06:47:17;4.20;99.90
35541;DHT22;21650;48.840;9.162;2023-04-03T06:49:43;4.10;99.90
35541;DHT22;21650;48.840;9.162;2023-04-03T06:52:09;4.10;99.90
35541;DHT22;21650;48.840;9.162;2023-04-03T06:54:37;4.10;99.90
35541;DHT22;21650;48.840;9.162;2023-04-03T06:57:03;4.10;99.90
35541;DHT22;21650;48.840;9.162;2023-04-03T06:59:29;4.00;99.90
35541;DHT22;21650;48.840;9.162;2023-04-03T07:01:55;4.00;99.90
35541;DHT22;21650;48.840;9.162;2023-04-03T07:04:20;4.10;99.90
35541;DHT22;21650;48.840;9.162;2023-04-03T07:06:47;4.20;99.90
35541;DHT22;21650;48.840;9.162;2023-04-03T07:09:14;4.10;99.90
35541;DHT22;21650;48.840;9.162;2023-04-03T07:11:40;4.20;99.90
35541;DHT22;21650;48.840;9.162;2023-04-03T07:14:06;4.30;99.90
35541;DHT22;21650;48.840;9.162;2023-04-03T07:16:33;4.30;99.90
35541;DHT22;21650;48.840;9.162;2023-04-03T07:18:59;4.30;99.90
35541;DHT22;21650;48.840;9.162;2023-04-03T07:21:24;4.30;99.90
35541;DHT22;21650;48.840;9.162;2023-04-03T07:23:50;4.50;99.90
35541;DHT22;21650;48.840;9.162;2023-04-03T07:26:16;4.50;99.90
35541;DHT22;21650;48.840;9.162;2023-04-03T07:28:42;4.40;99.90
35541;DHT22;21650;48.840;9.162;2023-04-03T07:31:12;4.70;99.90
35541;DHT22;21650;48.840;9.162;2023-04-03T07:33:39;4.60;99.90
35541;DHT22;21650;48.840;9.162;2023-04-03T07:36:06;4.80;99.90
35541;DHT22;21650;48.840;9.162;2023-04-03T07:38:33;4.90;99.90
35541;DHT22;21650;48.840;9.162;2023-04-03T07:40:59;5.10;99.90
35541;DHT22;21650;48.840;9.162;2023-04-03T07:43:25;4.90;99.90
35541;DHT22;21650;48.840;9.162;2023-04-03T07:45:51;4.90;99.90
35541;DHT22;21650;48.840;9.162;2023-04-03T07:48:20;4.90;99.90
35541;DHT22;21650;48.840;9.162;2023-04-03T07:50:46;5.00;99.90
35541;DHT22;21650;48.840;9.162;2023-04-03T07:53:12;5.10;99.90
35541;DHT22;21650;48.840;9.162;2023-04-03T07:55:37;5.30;99.90
35541;DHT22;21650;48.840;9.162;2023-04-03T07:58:13;5.10;99.90
35541;DHT22;21650;48.840;9.162;2023-04-03T08:00:40;5.30;99.90
35541;DHT22;21650;48.840;9.162;2023-04-03T08:03:07;5.40;99.90
35541;DHT22;21650;48.840;9.162;2023-04-03T08:05:37;5.70;99.90
35541;DHT22;21650;48.840;9.162;2023-04-03T08:08:02;5.70;99.90
35541;DHT22;21650;48.840;9.162;2023-04-03T08:10:30;5.50;99.90
35541;DHT22;21650;48.840;9.162;2023-04-03T08:12:55;5.40;99.90
35541;DHT22;21650;48.840;9.162;2023-04-03T08:15:21;5.40;99.90
35541;DHT22;21650;48.840;9.162;2023-04-03T08:17:47;5.40;99.90
35541;DHT22;21650;48.840;9.162;2023-04-03T08:20:12;5.50;99.90
35541;DHT22;21650;48.840;9.162;2023-04-03T08:22:38;5.80;99.90
35541;DHT22;21650;48.840;9.162;2023-04-03T08:25:04;5.70;99.90
35541;DHT22;21650;48.840;9.162;2023-04-03T08:27:30;5.60;99.90
35541;DHT22;21650;48.840;9.162;2023-04-03T08:29:56;5.60;99.90
35541;DHT22;21650;48.840;9.162;2023-04-03T08:32:22;5.60;99.90
35541;DHT22;21650;48.840;9.162;2023-04-03T08:34:48;5.70;99.90
35541;DHT22;21650;48.840;9.162;2023-04-03T08:37:14;5.60;99.90
35541;DHT22;21650;48.840;9.162;2023-04-03T08:39:41;5.70;99.90
35541;DHT22;21650;48.840;9.162;2023-04-03T08:42:15;5.50;99.90
35541;DHT22;21650;48.840;9.162;2023-04-03T08:47:34;6.00;99.90
35541;DHT22;21650;48.840;9.162;2023-04-03T08:50:06;6.10;99.90
35541;DHT22;21650;48.840;9.162;2023-04-03T08:52:39;6.10;99.90
35541;DHT22;21650;48.840;9.162;2023-04-03T08:55:19;6.00;99.90
35541;DHT22;21650;48.840;9.162;2023-04-03T08:57:47;5.80;99.90
35541;DHT22;21650;48.840;9.162;2023-04-03T09:00:20;5.80;99.90
35541;DHT22;21650;48.840;9.162;2023-04-03T09:02:49;5.90;99.90
35541;DHT22;21650;48.840;9.162;2023-04-03T09:05:29;6.00;99.90
35541;DHT22;21650;48.840;9.162;2023-04-03T09:08:03;6.80;99.90
35541;DHT22;21650;48.840;9.162;2023-04-03T09:10:33;6.80;99.90
35541;DHT22;21650;48.840;9.162;2023-04-03T09:13:13;6.80;99.90
35541;DHT22;21650;48.840;9.162;2023-04-03T09:15:44;6.60;99.90
35541;DHT22;21650;48.840;9.162;2023-04-03T09:21:00;6.50;99.90
35541;DHT22;21650;48.840;9.162;2023-04-03T09:23:42;6.40;99.90
35541;DHT22;21650;48.840;9.162;2023-04-03T09:26:18;6.40;99.90
35541;DHT22;21650;48.840;9.162;2023-04-03T09:28:46;6.40;99.90
35541;DHT22;21650;48.840;9.162;2023-04-03T09:34:06;6.40;99.90
35541;DHT22;21650;48.840;9.162;2023-04-03T09:36:47;6.90;99.90
35541;DHT22;21650;48.840;9.162;2023-04-03T09:39:19;6.80;99.90
35541;DHT22;21650;48.840;9.162;2023-04-03T09:44:33;6.50;99.90
35541;DHT22;21650;48.840;9.162;2023-04-03T09:46:59;6.50;99.90
35541;DHT22;21650;48.840;9.162;2023-04-03T09:49:42;6.60;99.90
35541;DHT22;21650;48.840;9.162;2023-04-03T09:52:23;6.60;99.90
35541;DHT22;21650;48.840;9.162;2023-04-03T09:54:50;6.70;99.90
35541;DHT22;21650;48.840;9.162;2023-04-03T09:57:15;6.70;99.90
35541;DHT22;21650;48.840;9.162;2023-04-03T09:59:58;6.70;99.90
35541;DHT22;21650;48.840;9.162;2023-04-03T10:02:35;6.60;99.90
35541;DHT22;21650;48.840;9.162;2023-04-03T10:05:01;6.40;99.90
35541;DHT22;21650;48.840;9.162;2023-04-03T10:07:35;6.40;99.90
35541;DHT22;21650;48.840;9.162;2023-04-03T10:10:22;6.50;99.90
35541;DHT22;21650;48.840;9.162;2023-04-03T10:13:09;6.30;99.90
35541;DHT22;21650;48.840;9.162;2023-04-03T10:15:59;6.40;99.90
35541;DHT22;21650;48.840;9.162;2023-04-03T10:18:41;6.30;99.90
35541;DHT22;21650;48.840;9.162;2023-04-03T10:24:10;6.40;99.90
35541;DHT22;21650;48.840;9.162;2023-04-03T10:27:02;6.30;99.90
35541;DHT22;21650;48.840;9.162;2023-04-03T10:29:40;6.40;99.90
35541;DHT22;21650;48.840;9.162;2023-04-03T10:32:37;6.40;99.90
35541;DHT22;21650;48.840;9.162;2023-04-03T10:40:52;6.40;99.90
35541;DHT22;21650;48.840;9.162;2023-04-03T10:43:27;6.50;99.90
35541;DHT22;21650;48.840;9.162;2023-04-03T10:46:02;6.40;99.90
35541;DHT22;21650;48.840;9.162;2023-04-03T10:48:49;6.30;99.90
35541;DHT22;21650;48.840;9.162;2023-04-03T10:51:51;6.20;99.90
35541;DHT22;21650;48.840;9.162;2023-04-03T10:54:29;6.20;99.90
35541;DHT22;21650;48.840;9.162;2023-04-03T10:57:01;6.30;99.90
35541;DHT22;21650;48.840;9.162;2023-04-03T11:05:44;6.50;99.90
35541;DHT22;21650;48.840;9.162;2023-04-03T11:07:52;6.80;99.90
35541;DHT22;21650;48.840;9.162;2023-04-03T11:10:31;6.90;99.90
35541;DHT22;21650;48.840;9.162;2023-04-03T11:13:38;6.90;99.90
35541;DHT22;21650;48.840;9.162;2023-04-03T11:16:06;6.80;99.30
35541;DHT22;21650;48.840;9.162;2023-04-03T11:18:41;6.60;97.80
35541;DHT22;21650;48.840;9.162;2023-04-03T11:21:19;6.50;98.30
35541;DHT22;21650;48.840;9.162;2023-04-03T11:23:47;6.60;99.20
35541;DHT22;21650;48.840;9.162;2023-04-03T11:26:18;6.60;99.50
35541;DHT22;21650;48.840;9.162;2023-04-03T11:28:46;6.70;99.60
35541;DHT22;21650;48.840;9.162;2023-04-03T11:31:30;6.70;99.30
35541;DHT22;21650;48.840;9.162;2023-04-03T11:36:51;6.50;99.40
35541;DHT22;21650;48.840;9.162;2023-04-03T11:39:31;6.70;99.90
35541;DHT22;21650;48.840;9.162;2023-04-03T11:44:45;6.60;99.40
35541;DHT22;21650;48.840;9.162;2023-04-03T11:47:11;6.70;99.40
35541;DHT22;21650;48.840;9.162;2023-04-03T11:50:05;6.60;98.90
35541;DHT22;21650;48.840;9.162;2023-04-03T12:05:56;7.10;98.30
35541;DHT22;21650;48.840;9.162;2023-04-03T12:13:39;7.20;97.80
35541;DHT22;21650;48.840;9.162;2023-04-03T12:16:07;7.10;97.10
35541;DHT22;21650;48.840;9.162;2023-04-03T12:29:23;7.10;97.10
35541;DHT22;21650;48.840;9.162;2023-04-03T12:40:05;7.20;96.60
35541;DHT22;21650;48.840;9.162;2023-04-03T12:45:20;7.10;96.80
35541;DHT22;21650;48.840;9.162;2023-04-03T12:47:49;7.20;96.30
35541;DHT22;21650;48.840;9.162;2023-04-03T12:50:22;7.00;96.20
35541;DHT22;21650;48.840;9.162;2023-04-03T12:53:06;7.00;96.70
35541;DHT22;21650;48.840;9.162;2023-04-03T12:55:32;6.80;96.40
35541;DHT22;21650;48.840;9.162;2023-04-03T12:58:23;6.80;96.50
35541;DHT22;21650;48.840;9.162;2023-04-03T13:01:04;6.80;96.90
35541;DHT22;21650;48.840;9.162;2023-04-03T13:03:39;6.80;96.70
35541;DHT22;21650;48.840;9.162;2023-04-03T13:06:05;6.90;97.10
35541;DHT22;21650;48.840;9.162;2023-04-03T13:08:32;7.10;97.90
35541;DHT22;21650;48.840;9.162;2023-04-03T13:11:10;7.00;96.30
35541;DHT22;21650;48.840;9.162;2023-04-03T13:13:37;7.20;96.60
35541;DHT22;21650;48.840;9.162;2023-04-03T13:16:11;7.20;96.20
35541;DHT22;21650;48.840;9.162;2023-04-03T13:18:39;7.40;97.40
35541;DHT22;21650;48.840;9.162;2023-04-03T13:21:15;7.20;96.00
35541;DHT22;21650;48.840;9.162;2023-04-03T13:23:45;7.20;97.20
35541;DHT22;21650;48.840;9.162;2023-04-03T13:26:11;7.20;96.90
35541;DHT22;21650;48.840;9.162;2023-04-03T13:28:39;7.10;96.60
35541;DHT22;21650;48.840;9.162;2023-04-03T13:31:47;7.00;96.50
35541;DHT22;21650;48.840;9.162;2023-04-03T13:33:55;7.00;97.00
35541;DHT22;21650;48.840;9.162;2023-04-03T13:36:32;7.20;97.10
35541;DHT22;21650;48.840;9.162;2023-04-03T13:41:40;7.40;93.70
35541;DHT22;21650;48.840;9.162;2023-04-03T13:46:57;7.50;94.80
35541;DHT22;21650;48.840;9.162;2023-04-03T13:51:57;7.70;94.40
35541;DHT22;21650;48.840;9.162;2023-04-03T13:54:43;7.80;93.70
35541;DHT22;21650;48.840;9.162;2023-04-03T13:57:14;8.00;93.40
35541;DHT22;21650;48.840;9.162;2023-04-03T13:59:40;7.70;93.10
35541;DHT22;21650;48.840;9.162;2023-04-03T14:02:14;7.60;93.70
35541;DHT22;21650;48.840;9.162;2023-04-03T14:07:09;7.80;94.80
35541;DHT22;21650;48.840;9.162;2023-04-03T14:09:35;7.60;93.90
35541;DHT22;21650;48.840;9.162;2023-04-03T14:12:06;7.50;94.10
35541;DHT22;21650;48.840;9.162;2023-04-03T14:14:35;7.60;94.60
35541;DHT22;21650;48.840;9.162;2023-04-03T14:17:10;7.60;93.40
35541;DHT22;21650;48.840;9.162;2023-04-03T14:19:39;7.50;94.50
35541;DHT22;21650;48.840;9.162;2023-04-03T14:22:25;7.60;94.10
35541;DHT22;21650;48.840;9.162;2023-04-03T14:24:52;7.50;92.90
35541;DHT22;21650;48.840;9.162;2023-04-03T14:27:22;7.40;92.40
35541;DHT22;21650;48.840;9.162;2023-04-03T14:29:49;7.40;92.70
35541;DHT22;21650;48.840;9.162;2023-04-03T14:32:16;7.50;92.50
35541;DHT22;21650;48.840;9.162;2023-04-03T14:34:43;7.50;92.60
35541;DHT22;21650;48.840;9.162;2023-04-03T14:37:13;7.80;93.40
35541;DHT22;21650;48.840;9.162;2023-04-03T14:39:40;7.80;91.30
35541;DHT22;21650;48.840;9.162;2023-04-03T14:42:06;7.80;91.60
35541;DHT22;21650;48.840;9.162;2023-04-03T14:44:35;8.00;91.70
35541;DHT22;21650;48.840;9.162;2023-04-03T14:47:01;8.20;91.80
35541;DHT22;21650;48.840;9.162;2023-04-03T14:49:29;7.90;91.60
35541;DHT22;21650;48.840;9.162;2023-04-03T14:51:56;7.60;91.90
35541;DHT22;21650;48.840;9.162;2023-04-03T14:54:23;7.60;92.50
35541;DHT22;21650;48.840;9.162;2023-04-03T14:56:53;7.50;91.90
35541;DHT22;21650;48.840;9.162;2023-04-03T14:59:21;7.70;92.80
35541;DHT22;21650;48.840;9.162;2023-04-03T15:01:47;7.70;91.70
35541;DHT22;21650;48.840;9.162;2023-04-03T15:04:14;7.70;91.90
35541;DHT22;21650;48.840;9.162;2023-04-03T15:06:40;7.70;92.00
35541;DHT22;21650;48.840;9.162;2023-04-03T15:09:18;7.50;91.50
35541;DHT22;21650;48.840;9.162;2023-04-03T15:11:44;7.80;91.70
35541;DHT22;21650;48.840;9.162;2023-04-03T15:14:10;8.10;91.40
35541;DHT22;21650;48.840;9.162;2023-04-03T15:16:36;8.40;90.90
35541;DHT22;21650;48.840;9.162;2023-04-03T15:19:02;8.30;91.00
35541;DHT22;21650;48.840;9.162;2023-04-03T15:21:28;8.20;91.90
35541;DHT22;21650;48.840;9.162;2023-04-03T15:23:53;8.20;92.30
35541;DHT22;21650;48.840;9.162;2023-04-03T15:26:19;8.00;91.40
35541;DHT22;21650;48.840;9.162;2023-04-03T15:28:46;7.80;91.40
35541;DHT22;21650;48.840;9.162;2023-04-03T15:31:11;7.50;91.60
35541;DHT22;21650;48.840;9.162;2023-04-03T15:33:38;7.30;91.90
35541;DHT22;21650;48.840;9.162;2023-04-03T15:36:04;7.10;92.30
35541;DHT22;21650;48.840;9.162;2023-04-03T15:38:30;7.20;93.00
35541;DHT22;21650;48.840;9.162;2023-04-03T15:40:57;7.00;92.20
35541;DHT22;21650;48.840;9.162;2023-04-03T15:43:23;7.10;92.60
35541;DHT22;21650;48.840;9.162;2023-04-03T15:45:49;7.50;92.70
35541;DHT22;21650;48.840;9.162;2023-04-03T15:48:16;8.00;92.20
35541;DHT22;21650;48.840;9.162;2023-04-03T15:50:42;8.30;90.60
35541;DHT22;21650;48.840;9.162;2023-04-03T15:53:08;8.80;90.70
35541;DHT22;21650;48.840;9.162;2023-04-03T15:55:35;8.70;88.50
35541;DHT22;21650;48.840;9.162;2023-04-03T15:58:02;8.70;86.90
35541;DHT22;21650;48.840;9.162;2023-04-03T16:00:28;8.60;88.80
35541;DHT22;21650;48.840;9.162;2023-04-03T16:03:23;8.60;87.50
35541;DHT22;21650;48.840;9.162;2023-04-03T16:05:50;8.50;89.00
35541;DHT22;21650;48.840;9.162;2023-04-03T16:08:16;8.60;90.00
35541;DHT22;21650;48.840;9.162;2023-04-03T16:10:43;8.70;90.10
35541;DHT22;21650;48.840;9.162;2023-04-03T16:13:11;8.60;90.30
35541;DHT22;21650;48.840;9.162;2023-04-03T16:15:37;8.00;90.30
35541;DHT22;21650;48.840;9.162;2023-04-03T16:18:03;7.70;90.80
35541;DHT22;21650;48.840;9.162;2023-04-03T16:20:29;7.40;91.50
35541;DHT22;21650;48.840;9.162;2023-04-03T16:22:57;7.20;91.10
35541;DHT22;21650;48.840;9.162;2023-04-03T16:25:24;7.00;91.50
35541;DHT22;21650;48.840;9.162;2023-04-03T16:27:50;6.90;91.30
35541;DHT22;21650;48.840;9.162;2023-04-03T16:30:15;6.80;92.60
35541;DHT22;21650;48.840;9.162;2023-04-03T16:32:41;6.80;92.60
35541;DHT22;21650;48.840;9.162;2023-04-03T16:35:08;6.80;92.30
35541;DHT22;21650;48.840;9.162;2023-04-03T16:37:36;7.00;92.10
35541;DHT22;21650;48.840;9.162;2023-04-03T16:40:03;7.10;92.30
35541;DHT22;21650;48.840;9.162;2023-04-03T16:42:28;7.10;92.40
35541;DHT22;21650;48.840;9.162;2023-04-03T16:44:54;7.00;91.60
35541;DHT22;21650;48.840;9.162;2023-04-03T16:47:20;6.90;92.40
35541;DHT22;21650;48.840;9.162;2023-04-03T16:49:46;6.80;91.80
35541;DHT22;21650;48.840;9.162;2023-04-03T16:52:12;6.80;91.40
35541;DHT22;21650;48.840;9.162;2023-04-03T16:54:38;6.80;92.10
35541;DHT22;21650;48.840;9.162;2023-04-03T16:57:04;6.80;91.80
35541;DHT22;21650;48.840;9.162;2023-04-03T16:59:29;6.80;91.20
35541;DHT22;21650;48.840;9.162;2023-04-03T17:01:55;6.70;91.30
35541;DHT22;21650;48.840;9.162;2023-04-03T17:04:21;6.70;91.30
35541;DHT22;21650;48.840;9.162;2023-04-03T17:06:46;6.70;92.00
35541;DHT22;21650;48.840;9.162;2023-04-03T17:09:12;6.70;91.40
35541;DHT22;21650;48.840;9.162;2023-04-03T17:11:38;6.60;92.00
35541;DHT22;21650;48.840;9.162;2023-04-03T17:14:04;6.60;92.30
35541;DHT22;21650;48.840;9.162;2023-04-03T17:16:33;6.60;92.40
35541;DHT22;21650;48.840;9.162;2023-04-03T17:18:59;6.60;92.10
35541;DHT22;21650;48.840;9.162;2023-04-03T17:21:26;6.60;92.50